Time;durP1;ratioP1;P1;durP2;ratioP2;P2;SDS_P1;SDS_P2;PMS_P1;PMS_P2;Temp;Humidity;BMP_temperature;BMP_pressure;BME280_temperature;BME280_humidity;BME280_pressure;Samples;Min_cycle;Max_cycle;Signal;HPM_P1;HPM_P2
2023/03/24 00:00:13;;;;;;;2.50;0.60;;;;;;;8.23;75.30;97842.34;5018515;28;20081;-46
2023/03/24 00:02:41;;;;;;;;;;;;;;;8.18;75.52;97843.34;5020493;28;20050;-51
2023/03/24 00:05:10;;;;;;;8.15;3.92;;;;;;;8.21;75.53;97838.13;5022348;28;20472;-48
2023/03/24 00:07:38;;;;;;;4.38;3.15;;;;;;;8.21;75.74;97843.28;5017769;28;20072;-50
2023/03/24 00:10:13;;;;;;;5.28;2.60;;;;;;;8.20;75.77;97847.56;5019497;28;20049;-49
2023/03/24 00:12:41;;;;;;;7.47;2.47;;;;;;;8.18;75.84;97844.19;5015552;28;20100;-47
2023/03/24 00:15:11;;;;;;;4.65;1.20;;;;;;;8.18;75.25;97849.34;5014193;28;20139;-49
2023/03/24 00:17:38;;;;;;;7.35;2.92;;;;;;;8.13;75.54;97840.03;5012497;28;20099;-48
2023/03/24 00:20:13;;;;;;;6.15;1.10;;;;;;;8.14;75.67;97847.72;5012161;28;20576;-50
2023/03/24 00:22:41;;;;;;;3.45;2.47;;;;;;;8.13;75.35;97851.22;5014860;28;20068;-48
2023/03/24 00:25:10;;;;;;;5.28;2.33;;;;;;;8.15;75.30;97858.91;5016464;28;20073;-50
2023/03/24 00:27:37;;;;;;;2.15;1.92;;;;;;;8.10;75.46;97857.31;5014276;28;20103;-48
2023/03/24 00:30:07;;;;;;;4.07;1.90;;;;;;;8.11;75.47;97860.75;5020676;28;20452;-48
2023/03/24 00:32:36;;;;;;;;;;;;;;;8.00;76.58;97855.03;5022593;28;20049;-48
2023/03/24 00:35:04;;;;;;;3.33;2.20;;;;;;;8.06;75.85;97854.84;5019709;28;19921;-48
2023/03/24 00:37:31;;;;;;;2.85;0.60;;;;;;;8.02;76.31;97858.41;5029488;28;20049;-49
2023/03/24 00:39:58;;;;;;;6.47;2.58;;;;;;;8.05;76.52;97860.91;5016749;28;20103;-49
2023/03/24 00:42:25;;;;;;;6.72;2.17;;;;;;;8.06;75.82;97849.69;5013266;28;20081;-53
2023/03/24 00:44:56;;;;;;;8.38;2.58;;;;;;;8.03;75.74;97865.22;5015423;28;20084;-51
2023/03/24 00:47:24;;;;;;;5.00;0.90;;;;;;;8.00;75.92;97865.34;5015424;28;20045;-49
2023/03/24 00:49:53;;;;;;;4.18;3.13;;;;;;;8.02;75.65;97863.56;5015128;28;20052;-50
2023/03/24 00:52:21;;;;;;;7.03;2.58;;;;;;;8.03;76.45;97860.06;5019663;28;20049;-48
2023/03/24 00:54:53;;;;;;;5.50;2.28;;;;;;;8.00;75.87;97867.91;5010753;28;20053;-48
2023/03/24 00:57:20;;;;;;;8.82;2.75;;;;;;;7.98;76.71;97868.78;5003234;28;20044;-48
2023/03/24 00:59:49;;;;;;;4.13;0.68;;;;;;;8.01;75.70;97872.19;5016484;28;20582;-48
2023/03/24 01:02:21;;;;;;;9.07;2.55;;;;;;;8.00;75.62;97875.66;5022447;28;20553;-51
2023/03/24 01:04:53;;;;;;;7.20;2.88;;;;;;;7.96;76.47;97875.72;5018002;28;20054;-47
2023/03/24 01:07:22;;;;;;;10.13;2.30;;;;;;;7.98;76.10;97879.09;5008858;28;20076;-52
2023/03/24 01:09:56;;;;;;;8.48;2.63;;;;;;;7.97;76.16;97892.88;5016224;28;20604;-49
2023/03/24 01:12:25;;;;;;;9.68;1.98;;;;;;;7.95;75.89;97894.66;5017438;28;20770;-49
2023/03/24 01:14:52;;;;;;;6.10;2.20;;;;;;;7.95;76.40;97894.66;5010160;28;20076;-48
2023/03/24 01:17:21;;;;;;;4.88;0.93;;;;;;;7.94;76.17;97892.97;5027514;28;20455;-50
2023/03/24 01:19:48;;;;;;;6.30;2.75;;;;;;;7.92;76.81;97893.88;5018997;28;20053;-48
2023/03/24 01:22:15;;;;;;;7.68;2.25;;;;;;;7.92;76.33;97887.00;5013878;28;20759;-50
2023/03/24 01:24:43;;;;;;;6.10;1.85;;;;;;;7.91;75.83;97903.34;5018345;28;20143;-48
2023/03/24 01:27:12;;;;;;;6.18;1.98;;;;;;;7.91;76.66;97908.50;5015576;28;20076;-48
2023/03/24 01:29:41;;;;;;;9.38;2.85;;;;;;;7.89;76.94;97920.59;5021634;28;20108;-49
2023/03/24 01:32:09;;;;;;;10.15;2.45;;;;;;;7.90;75.90;97911.97;5016141;28;20049;-48
2023/03/24 01:34:38;;;;;;;8.98;2.40;;;;;;;7.91;76.17;97902.53;5013795;28;20049;-51
2023/03/24 01:37:06;;;;;;;9.55;2.33;;;;;;;7.90;75.46;97906.00;5010928;28;20060;-49
2023/03/24 01:39:35;;;;;;;7.82;3.83;;;;;;;7.89;75.17;97915.44;5021741;28;20080;-48
2023/03/24 01:42:02;;;;;;;3.42;1.95;;;;;;;7.88;75.40;97929.22;5019044;28;20053;-48
2023/03/24 01:44:36;;;;;;;8.63;2.17;;;;;;;7.89;75.78;97935.22;5023512;28;20053;-49
2023/03/24 01:47:07;;;;;;;7.78;2.45;;;;;;;7.87;75.45;97932.66;5010041;28;20112;-51
2023/03/24 01:49:42;;;;;;;9.68;1.25;;;;;;;7.85;75.44;97942.19;5005922;28;20611;-49
2023/03/24 01:52:18;;;;;;;10.43;1.85;;;;;;;7.82;74.72;97950.84;5012250;28;20437;-50
2023/03/24 01:55:00;;;;;;;4.22;2.38;;;;;;;7.78;74.89;97941.50;5005825;28;20049;-48
2023/03/24 01:57:33;;;;;;;10.60;3.53;;;;;;;7.77;75.29;97936.38;5012627;28;20045;-48
2023/03/24 02:00:04;;;;;;;9.20;2.30;;;;;;;7.77;75.64;97947.53;5014026;28;20045;-50
2023/03/24 02:02:34;;;;;;;6.72;2.55;;;;;;;7.74;74.55;97957.06;5015450;28;20596;-49
2023/03/24 02:05:06;;;;;;;13.27;3.88;;;;;;;7.73;75.27;97963.94;5021247;28;20509;-50
2023/03/24 02:07:47;;;;;;;6.00;2.58;;;;;;;7.70;74.59;97969.19;5015194;28;20111;-50
2023/03/24 02:10:16;;;;;;;14.15;2.67;;;;;;;7.69;75.56;97965.75;5017924;28;20765;-48
2023/03/24 02:12:44;;;;;;;9.27;1.92;;;;;;;7.68;75.58;97973.53;5017935;28;20127;-50
2023/03/24 02:15:13;;;;;;;8.68;2.20;;;;;;;7.64;75.09;97970.19;5020938;28;20072;-51
2023/03/24 02:40:06;;;;;;;13.30;2.13;;;;;;;7.56;76.29;97974.66;5035251;28;20404;-48
2023/03/24 02:45:25;;;;;;;9.18;2.53;;;;;;;7.52;75.94;97983.34;5070742;27;21084;-48
2023/03/24 02:50:53;;;;;;;7.85;2.08;;;;;;;7.45;75.27;97991.22;5029865;27;20402;-48
2023/03/24 03:01:30;;;;;;;16.13;2.78;;;;;;;7.80;74.63;97982.69;5040144;27;20373;-48
2023/03/24 03:04:04;;;;;;;13.40;1.20;;;;;;;7.53;75.83;97987.63;5005842;28;20112;-49
2023/03/24 03:06:36;;;;;;;9.93;1.92;;;;;;;7.45;76.26;97983.50;4998951;28;20562;-49
2023/03/24 03:09:08;;;;;;;9.63;0.82;;;;;;;7.41;75.11;97981.88;5001399;28;20580;-48
2023/03/24 03:11:37;;;;;;;9.35;1.75;;;;;;;7.36;76.53;97988.84;5002767;28;20128;-47
2023/03/24 03:14:10;;;;;;;12.48;0.80;;;;;;;7.36;75.60;97983.69;5003159;28;20074;-48
2023/03/24 03:19:21;;;;;;;7.63;1.42;;;;;;;7.31;75.39;97991.56;5116901;27;20890;-48
2023/03/24 03:21:49;;;;;;;14.45;2.03;;;;;;;7.31;74.98;97995.84;5061686;28;20142;-48
2023/03/24 03:24:25;;;;;;;12.98;1.42;;;;;;;7.28;74.88;98001.06;5057264;28;20044;-49
2023/03/24 03:26:59;;;;;;;15.70;1.45;;;;;;;7.24;76.17;98005.44;5074812;28;20136;-49
2023/03/24 03:29:32;;;;;;;11.32;1.25;;;;;;;7.23;75.70;98003.72;5079670;28;20102;-51
2023/03/24 03:32:06;;;;;;;15.43;2.03;;;;;;;7.20;74.63;98014.94;5070752;28;20048;-52
2023/03/24 03:39:58;;;;;;;8.90;0.98;;;;;;;7.13;75.79;98023.69;5083480;27;20405;-48
2023/03/24 03:42:25;;;;;;;12.30;1.13;;;;;;;7.10;75.94;98023.78;5045477;28;20493;-50
2023/03/24 03:44:52;;;;;;;9.77;1.17;;;;;;;7.08;75.60;98020.38;5025422;28;20077;-49
2023/03/24 03:47:21;;;;;;;10.70;1.13;;;;;;;7.05;75.70;98020.44;5015313;28;20539;-48
2023/03/24 03:49:49;;;;;;;12.45;2.08;;;;;;;7.04;75.85;98026.47;5018974;28;20569;-47
2023/03/24 03:52:16;;;;;;;7.60;1.20;;;;;;;7.01;75.30;98029.09;5014191;28;20054;-48
2023/03/24 03:54:44;;;;;;;8.32;1.85;;;;;;;6.99;74.05;98029.13;5040357;28;20084;-48
2023/03/24 03:57:13;;;;;;;8.20;1.20;;;;;;;6.98;74.87;98024.88;5038696;28;20524;-49
2023/03/24 03:59:40;;;;;;;10.43;1.13;;;;;;;6.94;73.98;98023.22;5027362;28;20061;-49
2023/03/24 04:02:28;;;;;;;7.85;1.58;;;;;;;6.89;74.61;98025.88;5017375;28;20049;-48
2023/03/24 04:05:35;;;;;;;17.15;1.02;;;;;;;6.86;74.65;98023.38;5014304;28;20510;-49
2023/03/24 04:08:14;;;;;;;6.15;1.50;;;;;;;6.84;74.35;98027.72;5042188;28;20099;-48
2023/03/24 04:13:36;;;;;;;5.60;1.27;;;;;;;6.76;76.09;98035.56;5053329;28;20395;-48
2023/03/24 04:16:11;;;;;;;;;;;;;;;6.67;75.30;98041.78;5021025;28;20425;-51
2023/03/24 04:19:06;;;;;;;12.32;1.95;;;;;;;6.72;75.91;98048.56;5017214;28;19925;-48
2023/03/24 04:27:20;;;;;;;13.45;2.55;;;;;;;6.88;75.54;98052.50;5010320;28;20914;-48
2023/03/24 04:32:48;;;;;;;9.10;1.25;;;;;;;6.77;74.44;98057.03;5074128;27;20395;-49
2023/03/24 04:35:39;;;;;;;9.18;0.88;;;;;;;6.72;75.34;98056.28;5043921;28;20116;-48
2023/03/24 04:38:10;;;;;;;8.10;1.33;;;;;;;6.72;74.52;98059.66;5059105;28;20052;-48
2023/03/24 04:40:40;;;;;;;4.70;1.20;;;;;;;6.72;75.59;98064.00;5038249;28;20041;-48
2023/03/24 04:43:12;;;;;;;6.28;1.05;;;;;;;6.66;75.50;98068.34;5056630;28;20511;-48
2023/03/24 04:45:40;;;;;;;8.88;1.15;;;;;;;6.65;75.73;98069.25;5037875;28;20562;-48
2023/03/24 04:48:11;;;;;;;11.73;1.05;;;;;;;6.66;75.60;98070.94;5072111;28;20049;-48
2023/03/24 04:50:41;;;;;;;6.18;1.10;;;;;;;6.65;75.36;98064.09;5080939;28;20679;-49
2023/03/24 04:53:09;;;;;;;12.43;1.70;;;;;;;6.64;75.08;98064.97;5077621;28;20040;-49
2023/03/24 04:58:18;;;;;;;7.30;1.98;;;;;;;6.64;74.61;98071.84;5069626;27;20409;-50
2023/03/24 05:00:45;;;;;;;6.15;1.75;;;;;;;6.63;74.50;98081.31;5034485;28;20076;-51
2023/03/24 05:03:15;;;;;;;9.15;0.93;;;;;;;6.63;75.00;98075.28;5033648;28;20433;-48
2023/03/24 05:05:47;;;;;;;11.48;2.20;;;;;;;6.62;76.26;98084.72;5042323;28;20053;-48
2023/03/24 05:08:15;;;;;;;12.27;2.67;;;;;;;6.61;74.43;98080.47;5049747;28;20049;-48
2023/03/24 05:10:42;;;;;;;11.02;2.33;;;;;;;6.61;75.12;98083.03;5055395;28;20093;-49
2023/03/24 05:13:09;;;;;;;11.18;2.15;;;;;;;6.59;75.60;98082.22;5057675;28;20060;-49
2023/03/24 05:15:36;;;;;;;6.97;2.70;;;;;;;6.58;75.20;98090.81;5054372;28;20076;-52
2023/03/24 05:18:04;;;;;;;8.07;2.50;;;;;;;6.57;74.50;98094.25;5057785;28;20128;-47
2023/03/24 05:20:31;;;;;;;14.70;3.25;;;;;;;6.53;74.55;98090.06;5055103;28;20036;-51
2023/03/24 05:22:57;;;;;;;7.00;2.47;;;;;;;6.46;76.32;98089.31;5057109;28;20128;-47
2023/03/24 05:25:24;;;;;;;8.70;2.35;;;;;;;6.45;74.52;98090.16;5058601;28;20128;-48
2023/03/24 05:27:51;;;;;;;10.70;3.55;;;;;;;6.43;75.30;98097.91;5060380;28;20469;-48
2023/03/24 05:30:19;;;;;;;8.73;2.63;;;;;;;6.41;75.08;98098.81;5059764;28;20088;-49
2023/03/24 05:32:46;;;;;;;9.77;2.58;;;;;;;6.38;75.28;98096.31;5057933;28;20076;-49
2023/03/24 05:35:13;;;;;;;6.25;2.45;;;;;;;6.36;75.40;98095.47;5060821;28;20128;-48
2023/03/24 05:37:40;;;;;;;7.30;2.17;;;;;;;6.34;76.38;98098.06;5055157;28;20114;-48
2023/03/24 05:40:07;;;;;;;8.25;3.42;;;;;;;6.32;76.05;98099.84;5058458;28;20057;-48
2023/03/24 05:42:34;;;;;;;11.10;1.70;;;;;;;6.27;76.33;98096.47;5055954;28;20649;-51
2023/03/24 05:45:01;;;;;;;10.57;2.60;;;;;;;6.26;75.29;98099.94;5055141;28;20051;-52
2023/03/24 05:47:27;;;;;;;13.07;4.45;;;;;;;6.27;75.06;98099.91;5054860;28;20085;-49
2023/03/24 05:49:54;;;;;;;8.60;2.95;;;;;;;6.26;76.15;98097.38;5053836;28;20074;-50
2023/03/24 05:52:21;;;;;;;13.23;3.03;;;;;;;6.26;76.34;98102.50;5053687;28;20052;-48
2023/03/24 05:54:50;;;;;;;10.02;2.25;;;;;;;6.25;76.12;98117.06;5056893;28;20045;-49
2023/03/24 05:57:19;;;;;;;10.15;3.15;;;;;;;6.25;76.07;98121.38;5052128;28;20081;-49
2023/03/24 05:59:46;;;;;;;11.63;2.42;;;;;;;6.25;76.12;98117.06;5056232;28;20056;-50
2023/03/24 06:02:13;;;;;;;8.00;1.98;;;;;;;6.25;76.63;98116.25;5048501;28;20095;-48
2023/03/24 06:04:44;;;;;;;8.90;3.40;;;;;;;6.26;76.28;98117.94;5056046;28;20049;-51
2023/03/24 06:07:12;;;;;;;15.52;2.95;;;;;;;6.25;75.59;98124.78;5053766;28;20041;-49
2023/03/24 06:09:41;;;;;;;7.00;2.67;;;;;;;6.25;76.46;98121.38;5045936;28;20083;-50
2023/03/24 06:12:09;;;;;;;10.45;2.38;;;;;;;6.28;76.05;98121.31;5043092;28;20136;-48
2023/03/24 06:14:35;;;;;;;13.98;2.28;;;;;;;6.25;75.96;98111.09;5024823;28;20118;-48
2023/03/24 06:17:02;;;;;;;9.05;2.67;;;;;;;6.27;75.80;98115.34;5036407;28;20068;-48
2023/03/24 06:19:29;;;;;;;15.73;3.85;;;;;;;6.31;76.57;98116.13;5037668;28;20126;-51
2023/03/24 06:22:01;;;;;;;9.93;2.85;;;;;;;6.31;76.40;98121.25;5037925;28;20057;-50
2023/03/24 06:24:29;;;;;;;15.38;2.72;;;;;;;6.28;77.38;98122.16;5037696;28;20106;-49
2023/03/24 06:27:01;;;;;;;12.63;2.47;;;;;;;6.31;76.68;98116.13;5035848;28;20052;-50
2023/03/24 06:29:29;;;;;;;9.45;2.42;;;;;;;6.30;77.05;98119.56;5035789;28;20063;-48
2023/03/24 06:31:56;;;;;;;11.45;2.42;;;;;;;6.34;76.68;98131.50;5036140;28;20091;-48
2023/03/24 06:34:24;;;;;;;10.27;2.85;;;;;;;6.36;77.00;98132.34;5037459;28;20134;-48
2023/03/24 06:36:51;;;;;;;10.70;2.58;;;;;;;6.39;75.63;98139.97;5036480;28;20045;-48
2023/03/24 06:39:17;;;;;;;8.32;2.97;;;;;;;6.42;77.18;98142.50;5036682;28;20040;-49
2023/03/24 06:41:44;;;;;;;6.53;2.45;;;;;;;6.46;75.82;98147.59;5036966;28;20052;-49
2023/03/24 06:44:11;;;;;;;9.05;2.28;;;;;;;6.51;77.11;98153.50;5036924;28;20064;-48
2023/03/24 06:46:37;;;;;;;11.45;1.98;;;;;;;6.51;75.92;98154.38;5036634;28;20250;-49
2023/03/24 06:49:04;;;;;;;11.50;2.88;;;;;;;6.57;76.49;98153.41;5038156;28;20056;-49
2023/03/24 06:51:31;;;;;;;16.40;2.95;;;;;;;6.62;77.04;98156.75;5037219;28;20069;-48
2023/03/24 06:53:58;;;;;;;12.73;2.40;;;;;;;6.67;76.86;98154.09;5036774;28;20492;-48
2023/03/24 06:56:25;;;;;;;9.57;2.97;;;;;;;6.73;76.26;98160.88;5035306;28;20053;-48
2023/03/24 06:58:52;;;;;;;18.15;3.25;;;;;;;6.77;75.17;98162.50;5040448;28;20147;-48
2023/03/24 07:01:19;;;;;;;12.75;2.28;;;;;;;6.83;76.13;98170.13;5035130;28;20504;-49
2023/03/24 07:03:47;;;;;;;9.85;2.50;;;;;;;6.89;76.54;98170.00;5035951;28;20068;-47
2023/03/24 07:06:13;;;;;;;13.68;3.13;;;;;;;6.93;76.78;98171.66;5034845;28;20072;-48
2023/03/24 07:08:40;;;;;;;15.30;2.63;;;;;;;7.00;75.13;98163.81;5036439;28;20080;-49
2023/03/24 07:11:08;;;;;;;8.30;2.67;;;;;;;7.01;77.00;98168.09;5038309;28;20053;-49
2023/03/24 07:13:35;;;;;;;8.55;1.75;;;;;;;7.05;76.13;98162.00;5035704;28;20049;-49
2023/03/24 07:16:02;;;;;;;12.27;2.92;;;;;;;7.15;75.68;98166.13;5037324;28;20045;-48
2023/03/24 07:18:29;;;;;;;10.68;2.83;;;;;;;7.27;75.16;98166.75;5035999;28;20057;-49
2023/03/24 07:20:56;;;;;;;10.20;2.95;;;;;;;7.37;75.12;98170.84;5033873;28;20053;-48
2023/03/24 07:23:24;;;;;;;11.90;2.60;;;;;;;7.49;74.96;98174.06;5034742;28;20130;-48
2023/03/24 07:25:51;;;;;;;12.98;3.13;;;;;;;8.01;75.85;98168.66;5037353;28;20048;-48
2023/03/24 07:28:17;;;;;;;13.50;3.22;;;;;;;8.72;74.81;98172.16;5040987;28;20490;-49
2023/03/24 07:30:44;;;;;;;15.68;3.25;;;;;;;9.42;73.77;98179.78;5039489;28;20088;-52
2023/03/24 07:33:11;;;;;;;12.55;3.00;;;;;;;10.19;72.87;98162.88;5032491;28;20080;-49
2023/03/24 07:35:39;;;;;;;9.30;2.30;;;;;;;11.02;71.50;98174.00;5039312;28;20053;-48
2023/03/24 07:38:06;;;;;;;11.57;3.13;;;;;;;11.75;69.57;98170.53;5034217;28;20501;-50
2023/03/24 07:40:34;;;;;;;6.22;2.45;;;;;;;12.28;67.44;98184.13;5032045;28;20567;-48
2023/03/24 07:43:04;;;;;;;7.53;2.45;;;;;;;12.76;67.10;98178.75;5030655;28;20072;-52
2023/03/24 07:45:32;;;;;;;11.60;1.38;;;;;;;13.33;66.15;98174.59;5034737;28;20432;-48
2023/03/24 07:48:02;;;;;;;7.82;2.60;;;;;;;13.83;64.10;98175.88;5029636;28;20045;-49
2023/03/24 07:50:30;;;;;;;9.68;1.92;;;;;;;14.25;62.83;98180.88;5039076;28;20135;-52
2023/03/24 07:52:56;;;;;;;5.20;1.08;;;;;;;14.50;62.69;98185.75;5034925;28;20449;-51
2023/03/24 07:55:26;;;;;;;7.20;2.22;;;;;;;14.56;61.18;98179.38;5034032;28;20424;-52
2023/03/24 07:57:52;;;;;;;9.75;1.02;;;;;;;14.61;61.06;98172.19;5035937;28;20455;-49
2023/03/24 08:00:20;;;;;;;10.52;3.13;;;;;;;14.89;61.33;98168.22;5040270;28;20174;-56
2023/03/24 08:02:50;;;;;;;5.43;0.93;;;;;;;15.35;60.53;98161.56;5029533;28;20707;-52
2023/03/24 08:05:19;;;;;;;8.23;2.30;;;;;;;15.64;59.21;98161.75;5037934;28;20110;-50
2023/03/24 08:07:52;;;;;;;9.40;2.67;;;;;;;15.97;58.94;98167.03;5032009;28;20111;-52
2023/03/24 08:10:22;;;;;;;10.60;3.40;;;;;;;16.34;58.05;98159.72;5035240;28;20064;-51
2023/03/24 08:12:50;;;;;;;10.30;3.53;;;;;;;16.73;58.06;98167.97;5035643;28;20072;-50
2023/03/24 08:15:20;;;;;;;6.00;2.22;;;;;;;16.98;55.60;98165.69;5035241;28;20081;-52
2023/03/24 08:17:48;;;;;;;5.90;2.65;;;;;;;17.01;54.68;98174.19;5036646;28;20118;-48
2023/03/24 08:20:16;;;;;;;9.25;3.42;;;;;;;16.99;54.24;98164.75;5035239;28;20057;-49
2023/03/24 08:22:48;;;;;;;9.98;3.85;;;;;;;16.92;54.04;98169.50;5034970;28;20049;-49
2023/03/24 08:25:18;;;;;;;7.47;2.55;;;;;;;16.91;55.47;98173.03;5034987;28;20664;-49
2023/03/24 08:27:49;;;;;;;4.60;0.88;;;;;;;16.94;54.68;98172.88;5038089;28;20443;-50
2023/03/24 08:30:19;;;;;;;6.10;2.55;;;;;;;17.18;53.92;98170.59;5034102;28;20138;-49
2023/03/24 08:32:50;;;;;;;6.93;2.60;;;;;;;17.64;54.68;98176.56;5038727;28;20459;-51
2023/03/24 08:35:20;;;;;;;7.38;3.15;;;;;;;17.81;53.51;98164.19;5042056;28;20052;-53
2023/03/24 08:37:47;;;;;;;13.68;3.20;;;;;;;17.91;52.79;98178.41;5036973;28;20107;-53
2023/03/24 08:40:18;;;;;;;8.00;3.10;;;;;;;18.25;52.54;98180.66;5041856;28;20080;-50
2023/03/24 08:42:51;;;;;;;10.13;2.50;;;;;;;18.55;51.56;98178.75;5046148;28;20072;-53
2023/03/24 08:47:57;;;;;;;6.85;1.10;;;;;;;18.41;51.42;98179.66;5027270;27;20404;-51
2023/03/24 08:50:27;;;;;;;9.98;1.50;;;;;;;18.34;52.03;98184.47;5018092;28;20142;-49
2023/03/24 08:52:54;;;;;;;;;;;;;;;18.16;50.85;98182.09;5011424;28;20580;-49
2023/03/24 08:55:22;;;;;;;8.48;1.02;;;;;;;18.17;51.90;98175.06;5013009;28;19929;-51
2023/03/24 08:57:50;;;;;;;8.80;1.20;;;;;;;18.33;51.68;98177.53;5018367;28;20132;-52
2023/03/24 09:00:21;;;;;;;7.00;0.95;;;;;;;18.47;51.57;98180.09;5018600;28;20045;-48
2023/03/24 09:02:51;;;;;;;7.50;1.30;;;;;;;18.83;50.82;98184.78;5019848;28;20160;-49
2023/03/24 09:05:18;;;;;;;;;;;;;;;19.27;51.14;98188.84;5017430;28;20506;-54
2023/03/24 09:07:55;;;;;;;4.05;1.13;;;;;;;19.75;49.73;98191.69;5013076;28;19926;-52
2023/03/24 09:10:22;;;;;;;7.03;0.73;;;;;;;19.70;48.49;98186.78;5016063;28;20523;-52
2023/03/24 09:12:49;;;;;;;7.93;1.10;;;;;;;19.61;48.64;98179.53;5019267;28;20045;-54
2023/03/24 09:15:16;;;;;;;4.40;0.85;;;;;;;19.57;48.90;98194.69;5015801;28;20141;-54
2023/03/24 09:17:46;;;;;;;11.25;1.00;;;;;;;19.40;48.48;98190.59;5014827;28;20609;-51
2023/03/24 09:20:14;;;;;;;7.60;1.33;;;;;;;19.39;48.57;98188.94;5017771;28;20552;-52
2023/03/24 09:22:43;;;;;;;8.32;0.90;;;;;;;19.55;48.91;98186.06;5015439;28;20050;-52
2023/03/24 09:25:14;;;;;;;5.63;1.00;;;;;;;19.67;47.93;98181.75;5014268;28;20070;-51
2023/03/24 09:27:41;;;;;;;6.47;0.93;;;;;;;19.62;47.26;98186.50;5009379;28;20085;-51
2023/03/24 09:30:08;;;;;;;5.45;0.63;;;;;;;19.46;47.46;98177.06;5014852;28;20530;-50
2023/03/24 09:32:37;;;;;;;8.18;1.38;;;;;;;19.40;47.93;98177.47;5014012;28;20101;-51
2023/03/24 09:35:04;;;;;;;8.48;1.08;;;;;;;19.33;48.49;98178.84;5008995;28;20384;-53
2023/03/24 09:37:32;;;;;;;12.40;1.25;;;;;;;19.14;48.23;98193.22;5008675;28;20074;-53
2023/03/24 09:40:01;;;;;;;5.53;1.15;;;;;;;18.79;48.46;98181.53;5011128;28;20080;-53
2023/03/24 09:42:32;;;;;;;5.68;0.73;;;;;;;18.89;49.50;98179.13;5016765;28;20073;-53
2023/03/24 09:45:09;;;;;;;5.10;1.02;;;;;;;18.88;48.23;98182.72;5017253;28;20049;-50
2023/03/24 09:47:40;;;;;;;9.90;2.22;;;;;;;18.64;48.44;98183.38;5007664;28;20532;-51
2023/03/24 09:50:23;;;;;;;9.55;2.53;;;;;;;18.62;49.38;98199.19;5013177;28;20527;-51
2023/03/24 09:52:55;;;;;;;6.80;1.10;;;;;;;18.60;49.33;98192.38;5011168;28;20073;-50
2023/03/24 09:55:26;;;;;;;8.45;1.02;;;;;;;18.42;48.51;98184.81;5015509;28;20665;-50
2023/03/24 09:57:57;;;;;;;10.27;1.33;;;;;;;18.31;48.67;98188.09;5009817;28;20517;-50
2023/03/24 10:00:29;;;;;;;8.18;1.08;;;;;;;18.24;49.15;98173.75;5001416;28;20182;-51
2023/03/24 10:03:00;;;;;;;5.88;0.80;;;;;;;18.19;49.32;98181.91;4997499;28;20081;-52
2023/03/24 10:05:40;;;;;;;9.75;0.75;;;;;;;18.28;49.11;98184.84;4998318;28;20105;-52
2023/03/24 10:08:17;;;;;;;8.27;1.95;;;;;;;18.44;49.63;98187.34;5002098;28;20104;-51
2023/03/24 10:16:48;;;;;;;6.60;1.20;;;;;;;19.43;49.43;98182.53;5055398;28;20431;-52
2023/03/24 10:22:18;;;;;;;8.57;1.88;;;;;;;19.88;48.61;98183.78;5054411;28;20396;-52
2023/03/24 10:25:07;;;;;;;7.18;1.30;;;;;;;20.07;47.52;98177.25;5028700;28;20073;-53
2023/03/24 10:27:57;;;;;;;4.63;0.82;;;;;;;20.12;47.18;98177.75;5020390;28;20141;-50
2023/03/24 10:30:32;;;;;;;6.50;1.80;;;;;;;20.05;47.04;98169.47;5022951;28;20072;-52
2023/03/24 10:32:58;;;;;;;5.28;0.88;;;;;;;20.00;46.92;98172.41;5016879;28;20054;-52
2023/03/24 10:35:33;;;;;;;4.93;1.33;;;;;;;20.00;46.79;98176.84;5009539;28;20057;-50
2023/03/24 10:38:05;;;;;;;4.53;1.00;;;;;;;19.86;46.14;98168.13;5008037;28;20115;-50
2023/03/24 10:40:32;;;;;;;6.13;1.52;;;;;;;19.66;46.77;98172.19;5022382;28;20095;-53
2023/03/24 10:43:02;;;;;;;8.05;2.70;;;;;;;19.64;46.89;98166.19;5021794;28;20148;-53
2023/03/24 10:45:37;;;;;;;6.63;2.10;;;;;;;19.71;45.14;98154.31;5023520;28;20046;-48
2023/03/24 10:48:04;;;;;;;30.25;13.07;;;;;;;19.68;45.87;98166.81;5014121;28;20056;-51
2023/03/24 10:50:32;;;;;;;53.45;24.77;;;;;;;19.67;46.01;98170.41;5019790;28;20092;-50
2023/03/24 10:52:59;;;;;;;22.02;10.98;;;;;;;19.59;46.13;98170.94;5024697;28;20057;-52
2023/03/24 10:55:30;;;;;;;8.65;2.20;;;;;;;19.45;45.27;98157.00;5023534;28;20049;-50
2023/03/24 10:57:59;;;;;;;11.63;4.63;;;;;;;19.26;45.22;98155.63;5021334;28;20057;-50
2023/03/24 11:00:30;;;;;;;11.10;8.38;;;;;;;19.11;45.92;98168.03;5018991;28;20120;-52
2023/03/24 11:03:00;;;;;;;10.73;6.03;;;;;;;18.89;46.22;98163.41;5017524;28;20061;-51
2023/03/24 11:05:32;;;;;;;13.38;7.68;;;;;;;18.76;47.20;98155.50;5017201;28;20038;-50
2023/03/24 11:08:13;;;;;;;4.78;0.85;;;;;;;18.48;45.17;98155.56;5016333;28;20123;-50
2023/03/24 11:10:40;;;;;;;11.10;3.88;;;;;;;18.29;46.22;98153.31;5016942;28;20107;-51
2023/03/24 11:13:18;;;;;;;5.82;2.40;;;;;;;17.96;44.85;98149.28;5025231;28;20084;-51
2023/03/24 11:18:52;;;;;;;7.57;1.60;;;;;;;17.66;47.02;98158.97;5101560;27;20378;-50
2023/03/24 11:21:19;;;;;;;10.68;4.13;;;;;;;17.55;47.73;98161.41;5059319;28;20091;-55
2023/03/24 11:23:46;;;;;;;9.07;4.45;;;;;;;17.50;47.68;98147.78;5058047;28;20094;-51
2023/03/24 11:31:29;;;;;;;5.32;2.08;;;;;;;17.56;47.09;98148.25;5071270;27;20395;-51
2023/03/24 11:36:46;;;;;;;8.13;3.20;;;;;;;17.23;48.02;98144.16;5044914;28;20397;-52
2023/03/24 11:53:02;;;;;;;4.90;1.23;;;;;;;16.64;49.63;98151.06;5041550;28;20392;-54
2023/03/24 12:00:56;;;;;;;8.25;3.80;;;;;;;16.78;49.69;98152.00;5095581;27;20414;-50
2023/03/24 12:17:16;;;;;;;24.88;12.52;;;;;;;16.45;49.30;98126.00;5084265;27;20392;-51
2023/03/24 12:39:20;;;;;;;8.23;4.65;;;;;;;15.73;52.29;98118.66;5055848;27;20413;-49
2023/03/24 12:50:03;;;;;;;8.38;3.72;;;;;;;15.74;53.22;98096.03;5084682;27;20395;-48
2023/03/24 12:55:24;;;;;;;8.75;4.93;;;;;;;15.84;51.42;98099.78;5098896;27;20388;-53
2023/03/24 12:57:57;;;;;;;7.35;3.05;;;;;;;15.91;51.74;98085.47;5043638;28;20033;-49
2023/03/24 13:00:29;;;;;;;5.75;1.75;;;;;;;15.91;52.22;98084.63;5079067;28;20056;-48
2023/03/24 13:03:00;;;;;;;2.45;0.88;;;;;;;15.96;52.96;98092.22;5083626;28;20444;-48
2023/03/24 13:05:30;;;;;;;3.45;1.80;;;;;;;15.95;51.63;98094.00;5078593;28;20054;-50
2023/03/24 13:08:01;;;;;;;;;;;;;;;15.78;52.12;98084.47;5082439;28;20044;-53
2023/03/24 13:10:33;;;;;;;3.88;2.72;;;;;;;15.85;51.60;98085.81;5078009;28;19928;-50
2023/03/24 13:15:46;;;;;;;4.95;1.05;;;;;;;16.03;52.50;98085.72;5012837;28;20162;-50
2023/03/24 13:21:03;;;;;;;4.13;1.23;;;;;;;16.18;52.59;98078.81;5043022;28;20417;-49
2023/03/24 13:31:36;;;;;;;5.47;0.60;;;;;;;16.52;51.59;98073.38;5073962;27;20442;-49
2023/03/24 13:34:08;;;;;;;5.68;1.92;;;;;;;16.60;52.26;98071.16;5012847;28;20768;-50
2023/03/24 13:36:47;;;;;;;4.80;2.17;;;;;;;16.64;51.32;98064.81;5028555;28;20130;-51
2023/03/24 13:39:18;;;;;;;6.85;0.90;;;;;;;16.64;51.53;98054.34;5014664;28;20050;-52
2023/03/24 13:41:50;;;;;;;8.77;1.13;;;;;;;16.55;51.25;98065.38;5010808;28;20041;-53
2023/03/24 13:44:20;;;;;;;7.90;2.67;;;;;;;16.38;51.26;98061.94;5010716;28;20057;-48
2023/03/24 13:49:51;;;;;;;3.75;1.25;;;;;;;16.34;51.13;98060.47;5033071;28;20400;-48
2023/03/24 13:52:31;;;;;;;2.72;1.05;;;;;;;16.42;51.31;98058.22;4994046;28;20208;-49
2023/03/24 13:55:01;;;;;;;4.10;1.27;;;;;;;16.53;51.86;98059.38;4993818;28;20130;-49
2023/03/24 13:57:28;;;;;;;2.83;0.63;;;;;;;16.50;50.59;98055.19;4993921;28;20455;-48
2023/03/24 14:00:04;;;;;;;2.33;0.65;;;;;;;16.45;50.29;98046.78;4995296;28;20453;-51
2023/03/24 14:15:56;;;;;;;5.20;1.58;;;;;;;16.50;50.07;98034.28;5051314;28;20425;-49
2023/03/24 14:21:05;;;;;;;6.72;2.38;;;;;;;16.51;50.48;98035.13;5028018;27;20909;-50
2023/03/24 14:26:27;;;;;;;4.13;0.98;;;;;;;16.30;49.56;98043.28;5050066;28;20395;-51
2023/03/24 14:31:40;;;;;;;7.85;2.58;;;;;;;15.93;49.63;98047.06;5060703;28;20397;-51
2023/03/24 14:34:14;;;;;;;12.35;3.40;;;;;;;15.79;50.22;98067.88;5056323;28;20140;-49
2023/03/24 14:36:43;;;;;;;7.05;2.28;;;;;;;15.57;50.88;98055.22;5039867;28;20487;-50
2023/03/24 14:39:32;;;;;;;3.28;1.63;;;;;;;15.22;51.46;98062.25;5057686;28;20106;-51
2023/03/24 14:41:59;;;;;;;10.05;3.95;;;;;;;15.06;53.08;98036.16;5043290;28;20449;-48
2023/03/24 14:47:26;;;;;;;12.30;4.80;;;;;;;15.42;54.74;98037.72;5071302;27;20895;-50
2023/03/24 14:49:57;;;;;;;11.23;3.88;;;;;;;15.11;54.99;98039.38;5039973;28;20124;-49
2023/03/24 14:55:11;;;;;;;7.35;1.77;;;;;;;14.98;55.81;98035.72;5123539;27;20372;-51
2023/03/24 14:57:43;;;;;;;6.45;1.38;;;;;;;14.99;55.84;98029.59;5086835;28;20036;-50